createdAt,value
2019-03-28T00:02:00.170Z,55.48
2019-03-28T00:04:33.947Z,52.30
2019-03-28T00:07:08.853Z,49.23
2019-03-28T00:09:42.840Z,58.20
2019-03-28T00:12:16.871Z,53.80
2019-03-28T00:14:50.441Z,51.02
2019-03-28T00:17:23.931Z,55.47
2019-03-28T00:19:57.497Z,47.03
2019-03-28T00:22:31.013Z,55.73
2019-03-28T00:25:04.476Z,46.83
2019-03-28T00:27:38.266Z,60.03
2019-03-28T00:30:12.568Z,42.70
2019-03-28T00:32:46.283Z,46.73
2019-03-28T00:35:25.717Z,51.63
2019-03-28T00:38:01.450Z,47.30
2019-03-28T00:40:34.944Z,42.00
2019-03-28T00:43:08.703Z,52.40
2019-03-28T00:45:44.470Z,50.20
2019-03-28T00:48:16.931Z,43.17
2019-03-28T00:50:50.529Z,53.80
2019-03-28T00:53:24.247Z,39.13
2019-03-28T00:55:58.116Z,59.47
2019-03-28T00:58:31.708Z,46.97
2019-03-28T01:01:05.506Z,54.40
2019-03-28T01:03:39.356Z,46.33
2019-03-28T01:06:13.009Z,41.55
2019-03-28T01:08:46.690Z,34.93
2019-03-28T01:11:22.552Z,40.23
2019-03-28T01:13:57.649Z,38.33
2019-03-28T01:16:31.199Z,38.97
2019-03-28T01:19:04.514Z,37.73
2019-03-28T01:21:40.086Z,38.38
2019-03-28T01:24:15.708Z,33.40
2019-03-28T01:27:08.999Z,34.93
2019-03-28T01:29:43.092Z,35.63
2019-03-28T01:32:17.215Z,34.73
2019-03-28T01:34:51.166Z,47.30
2019-03-28T01:37:25.081Z,32.70
2019-03-28T01:40:00.853Z,22.33
2019-03-28T01:42:34.840Z,24.00
2019-03-28T01:45:11.058Z,31.70
2019-03-28T01:47:45.333Z,29.20
2019-03-28T01:50:19.546Z,45.12
2019-03-28T01:52:53.283Z,22.67
2019-03-28T01:55:27.363Z,22.03
2019-03-28T01:58:03.060Z,27.83
2019-03-28T02:00:38.608Z,19.73
2019-03-28T02:03:16.475Z,21.27
2019-03-28T02:05:50.478Z,20.53
2019-03-28T02:08:25.109Z,15.93
2019-03-28T02:10:58.966Z,24.87
2019-03-28T02:13:32.722Z,22.67
2019-03-28T02:16:06.935Z,28.07
2019-03-28T02:18:41.082Z,19.57
2019-03-28T02:21:17.111Z,20.63
2019-03-28T02:23:50.820Z,24.43
2019-03-28T02:26:24.538Z,24.20
2019-03-28T02:28:59.569Z,23.10
2019-03-28T02:31:33.263Z,19.57
2019-03-28T02:34:08.397Z,23.57
2019-03-28T02:36:42.333Z,20.97
2019-03-28T02:39:16.879Z,18.00
2019-03-28T02:41:50.714Z,24.10
2019-03-28T02:44:24.356Z,20.97
2019-03-28T02:46:58.138Z,21.27
2019-03-28T02:49:31.859Z,18.07
2019-03-28T02:52:05.596Z,22.90
2019-03-28T02:54:40.972Z,22.10
2019-03-28T02:57:15.090Z,19.77
2019-03-28T02:59:48.746Z,26.73
2019-03-28T03:02:22.613Z,25.10
2019-03-28T03:04:56.943Z,19.60
2019-03-28T03:07:32.307Z,11.67
2019-03-28T03:10:09.572Z,18.53
2019-03-28T03:12:43.357Z,14.67
2019-03-28T03:15:17.145Z,15.50
2019-03-28T03:17:52.132Z,17.93
2019-03-28T03:20:27.766Z,14.73
2019-03-28T03:23:01.504Z,11.67
2019-03-28T03:25:35.797Z,15.73
2019-03-28T03:28:09.899Z,11.83
2019-03-28T03:30:43.949Z,11.55
2019-03-28T03:33:17.737Z,9.77
2019-03-28T03:35:53.502Z,8.43
2019-03-28T03:38:27.499Z,10.63
2019-03-28T03:41:01.704Z,14.70
2019-03-28T03:43:35.628Z,14.03
2019-03-28T03:46:09.687Z,19.30
2019-03-28T03:48:43.852Z,14.80
2019-03-28T03:51:17.368Z,14.93
2019-03-28T03:53:52.759Z,9.68
2019-03-28T03:56:26.604Z,11.63
2019-03-28T03:59:00.665Z,12.13
2019-03-28T04:01:36.683Z,15.08
2019-03-28T04:04:11.635Z,11.10
2019-03-28T04:06:51.799Z,19.10
2019-03-28T04:09:26.054Z,13.27
2019-03-28T04:12:03.245Z,18.00
2019-03-28T04:14:36.979Z,16.87
2019-03-28T04:17:12.345Z,14.33
2019-03-28T04:19:46.268Z,17.20
2019-03-28T04:22:20.646Z,15.55
2019-03-28T04:24:54.668Z,18.20
2019-03-28T04:27:28.745Z,20.97
2019-03-28T04:30:02.644Z,13.27
2019-03-28T04:32:36.485Z,19.43
2019-03-28T04:35:10.443Z,13.43
2019-03-28T04:37:44.312Z,14.87
2019-03-28T04:40:18.015Z,16.00
2019-03-28T04:42:52.591Z,14.60
2019-03-28T04:45:27.426Z,18.13
2019-03-28T04:48:01.784Z,13.93
2019-03-28T04:50:35.701Z,14.67
2019-03-28T04:53:10.047Z,12.47
2019-03-28T04:55:44.000Z,15.13
2019-03-28T04:58:21.335Z,7.80
2019-03-28T05:00:53.223Z,23.83
2019-03-28T05:03:26.902Z,16.63
2019-03-28T05:06:02.205Z,8.00
2019-03-28T05:08:35.790Z,9.97
2019-03-28T05:11:09.465Z,7.75
2019-03-28T05:13:46.619Z,7.50
2019-03-28T05:16:20.431Z,8.97
2019-03-28T05:18:54.158Z,8.90
2019-03-28T05:21:28.325Z,11.97
2019-03-28T05:24:02.177Z,8.63
2019-03-28T05:26:36.467Z,13.53
2019-03-28T05:29:10.946Z,10.98
2019-03-28T05:31:46.410Z,9.20
2019-03-28T05:34:20.233Z,14.27
2019-03-28T05:36:53.922Z,21.07
2019-03-28T05:39:27.675Z,7.67
2019-03-28T05:42:01.698Z,7.57
2019-03-28T05:44:37.537Z,14.10
2019-03-28T05:47:11.502Z,10.13
2019-03-28T05:49:47.188Z,17.20
2019-03-28T05:52:21.022Z,8.77
2019-03-28T05:54:57.572Z,13.77
2019-03-28T05:57:31.239Z,11.03
2019-03-28T06:00:06.038Z,13.65
2019-03-28T06:02:39.786Z,9.23
2019-03-28T06:05:14.301Z,12.43
2019-03-28T06:07:48.254Z,8.67
2019-03-28T06:10:22.567Z,14.93
2019-03-28T06:12:56.859Z,12.20
2019-03-28T06:15:31.823Z,8.10
2019-03-28T06:18:05.833Z,13.30
2019-03-28T06:20:39.655Z,16.70
2019-03-28T06:23:13.548Z,17.42
2019-03-28T06:25:47.324Z,17.80
2019-03-28T06:28:20.888Z,18.67
2019-03-28T06:30:55.944Z,19.73
2019-03-28T06:33:30.352Z,18.90
2019-03-28T06:36:04.132Z,15.93
2019-03-28T06:38:38.510Z,15.35
2019-03-28T06:41:12.343Z,9.13
2019-03-28T06:43:46.212Z,12.73
2019-03-28T06:46:19.971Z,15.95
2019-03-28T06:48:55.372Z,9.77
2019-03-28T06:51:31.334Z,9.67
2019-03-28T06:54:15.007Z,10.98
2019-03-28T06:56:48.825Z,10.00
2019-03-28T06:59:22.518Z,13.55
2019-03-28T07:01:56.580Z,8.70
2019-03-28T07:04:30.912Z,17.80
2019-03-28T07:07:05.057Z,14.07
2019-03-28T07:09:39.961Z,18.13
2019-03-28T07:12:13.522Z,10.78
2019-03-28T07:14:47.289Z,15.10
2019-03-28T07:17:22.826Z,10.65
2019-03-28T07:19:56.917Z,20.90
2019-03-28T07:22:31.070Z,9.30
2019-03-28T07:25:04.750Z,11.23
2019-03-28T07:27:38.475Z,8.93
2019-03-28T07:33:06.705Z,10.23
2019-03-28T07:35:42.123Z,9.88
2019-03-28T07:38:16.773Z,12.70
2019-03-28T07:40:51.017Z,14.07
2019-03-28T07:43:25.281Z,15.32
2019-03-28T07:45:59.429Z,17.40
2019-03-28T07:48:33.277Z,17.90
2019-03-28T07:51:06.618Z,16.00
2019-03-28T07:53:40.574Z,7.15
2019-03-28T07:56:14.818Z,10.03
2019-03-28T07:58:49.013Z,13.90
2019-03-28T08:01:23.360Z,19.63
2019-03-28T08:03:57.802Z,15.00
2019-03-28T08:06:32.027Z,11.37
2019-03-28T08:09:09.891Z,8.48
2019-03-28T08:11:44.244Z,11.50
2019-03-28T08:14:20.941Z,14.97
2019-03-28T08:16:56.490Z,14.33
2019-03-28T08:19:32.771Z,13.47
2019-03-28T08:22:08.758Z,14.80
2019-03-28T08:24:44.153Z,17.50
2019-03-28T08:27:19.645Z,9.97
2019-03-28T08:29:57.688Z,14.13
2019-03-28T08:32:30.311Z,14.43
2019-03-28T08:35:04.101Z,12.60
2019-03-28T08:37:39.256Z,12.20
2019-03-28T08:40:15.494Z,13.00
2019-03-28T08:42:50.863Z,16.83
2019-03-28T08:45:25.064Z,10.90
2019-03-28T08:48:01.067Z,12.73
2019-03-28T08:50:34.854Z,17.30
2019-03-28T08:53:08.781Z,8.70
2019-03-28T08:55:43.486Z,20.93
2019-03-28T08:58:18.820Z,13.00
2019-03-28T09:00:54.060Z,14.13
2019-03-28T09:03:29.873Z,14.83
2019-03-28T09:06:05.574Z,13.27
2019-03-28T09:08:39.629Z,21.80
2019-03-28T09:11:14.313Z,20.00
2019-03-28T09:13:49.092Z,22.13
2019-03-28T09:16:24.434Z,11.13
2019-03-28T09:19:00.160Z,13.53
2019-03-28T09:21:35.655Z,13.53
2019-03-28T09:24:09.550Z,14.50
2019-03-28T09:26:44.156Z,15.43
2019-03-28T09:29:18.962Z,17.33
2019-03-28T09:31:53.044Z,14.57
2019-03-28T09:34:28.463Z,17.27
2019-03-28T09:37:03.367Z,18.00
2019-03-28T09:39:38.706Z,14.03
2019-03-28T09:42:12.399Z,13.80
2019-03-28T09:44:46.971Z,13.93
2019-03-28T09:47:21.410Z,19.13
2019-03-28T09:50:03.066Z,24.97
2019-03-28T09:52:37.473Z,28.83
2019-03-28T09:55:11.813Z,31.80
2019-03-28T09:57:46.551Z,15.37
2019-03-28T10:00:21.580Z,23.43
2019-03-28T10:02:56.503Z,21.23
2019-03-28T10:05:32.109Z,18.93
2019-03-28T10:08:07.294Z,22.13
2019-03-28T10:10:42.182Z,15.25
2019-03-28T10:13:17.260Z,20.00
2019-03-28T10:18:46.824Z,22.03
2019-03-28T10:21:25.442Z,25.50
2019-03-28T10:24:00.544Z,20.57
2019-03-28T10:26:35.682Z,21.43
2019-03-28T10:29:10.494Z,25.08
2019-03-28T10:31:47.052Z,21.62
2019-03-28T10:34:25.548Z,26.25
2019-03-28T10:37:01.433Z,26.07
2019-03-28T10:39:36.140Z,26.67
2019-03-28T10:42:17.700Z,28.17
2019-03-28T10:44:53.652Z,31.30
2019-03-28T10:47:30.345Z,31.07
2019-03-28T10:50:07.280Z,27.47
2019-03-28T10:52:43.439Z,35.38
2019-03-28T10:55:21.711Z,39.43
2019-03-28T10:57:59.217Z,27.43
2019-03-28T11:00:36.958Z,39.73
2019-03-28T11:03:12.568Z,38.73
2019-03-28T11:05:50.494Z,34.80
2019-03-28T11:08:28.707Z,40.27
2019-03-28T11:11:02.357Z,43.10
2019-03-28T11:13:37.649Z,38.33
2019-03-28T11:16:15.230Z,35.20
2019-03-28T11:18:52.612Z,41.53
2019-03-28T11:21:28.096Z,43.17
2019-03-28T11:24:05.251Z,48.35
2019-03-28T11:26:42.769Z,43.60
2019-03-28T11:29:18.737Z,48.80
2019-03-28T11:31:55.094Z,46.97
2019-03-28T11:34:30.506Z,50.87
2019-03-28T11:37:11.347Z,50.27
2019-03-28T11:39:44.594Z,45.73
2019-03-28T11:42:23.661Z,52.27
2019-03-28T11:44:59.553Z,48.57
2019-03-28T11:47:41.140Z,57.27
2019-03-28T11:50:18.553Z,42.43
2019-03-28T11:53:04.515Z,49.23
2019-03-28T11:55:48.528Z,45.87
2019-03-28T11:58:22.003Z,42.23
2019-03-28T12:00:57.503Z,47.87
2019-03-28T12:03:39.611Z,46.60
2019-03-28T12:06:15.121Z,52.10
2019-03-28T12:08:55.769Z,51.10
2019-03-28T12:11:29.241Z,48.77
2019-03-28T12:14:06.205Z,50.63
2019-03-28T12:16:48.310Z,35.43
2019-03-28T12:19:24.981Z,38.37
2019-03-28T12:22:05.278Z,48.00
2019-03-28T12:24:42.485Z,44.48
2019-03-28T12:27:20.225Z,43.45
2019-03-28T12:30:01.109Z,48.13
2019-03-28T12:32:37.239Z,43.23
2019-03-28T12:41:02.964Z,46.23
2019-03-28T12:43:39.529Z,51.47
2019-03-28T12:46:18.095Z,49.60
2019-03-28T12:48:53.616Z,50.20
2019-03-28T12:51:31.167Z,51.67
2019-03-28T12:54:09.190Z,51.57
2019-03-28T12:56:50.107Z,46.63
2019-03-28T12:59:27.727Z,49.70
2019-03-28T13:02:05.805Z,55.13
2019-03-28T13:04:41.484Z,60.47
2019-03-28T13:07:17.034Z,49.63
2019-03-28T13:09:52.621Z,59.83
2019-03-28T13:12:34.343Z,56.50
2019-03-28T13:15:10.898Z,57.90
2019-03-28T13:17:46.552Z,50.13
2019-03-28T13:20:27.312Z,50.43
2019-03-28T13:23:04.632Z,55.37
2019-03-28T13:25:42.569Z,65.13
2019-03-28T13:28:23.292Z,54.47
2019-03-28T13:30:59.686Z,56.07
2019-03-28T13:33:37.441Z,59.00
2019-03-28T13:36:13.021Z,52.37
2019-03-28T13:38:53.191Z,49.53
2019-03-28T13:41:28.541Z,63.30
2019-03-28T13:44:03.824Z,56.17
2019-03-28T13:46:42.075Z,70.10
2019-03-28T13:49:18.366Z,75.77
2019-03-28T13:51:58.808Z,57.98
2019-03-28T13:54:35.088Z,68.83
2019-03-28T13:57:10.792Z,61.97
2019-03-28T13:59:47.377Z,68.97
2019-03-28T14:02:22.419Z,57.77
2019-03-28T14:04:59.018Z,57.45
2019-03-28T14:07:35.819Z,68.23
2019-03-28T14:10:13.455Z,63.83
2019-03-28T14:12:47.884Z,65.78
2019-03-28T14:15:25.336Z,60.63
2019-03-28T14:18:01.545Z,56.47
2019-03-28T14:20:36.835Z,60.23
2019-03-28T14:23:10.920Z,63.23
2019-03-28T14:25:46.667Z,64.12
2019-03-28T14:28:22.687Z,63.40
2019-03-28T14:31:00.678Z,65.33
2019-03-28T14:33:34.436Z,56.47
2019-03-28T14:36:08.949Z,60.63
2019-03-28T14:38:43.611Z,63.25
2019-03-28T14:41:18.094Z,61.20
2019-03-28T14:43:53.389Z,57.73
2019-03-28T14:46:29.604Z,62.20
2019-03-28T14:49:05.572Z,58.90
2019-03-28T14:51:40.010Z,62.13
2019-03-28T14:54:15.675Z,64.10
2019-03-28T14:56:51.482Z,57.80
2019-03-28T14:59:32.381Z,55.73
2019-03-28T15:02:03.905Z,62.33
2019-03-28T15:04:39.459Z,57.10
2019-03-28T15:07:13.784Z,54.70
2019-03-28T15:09:49.954Z,50.43
2019-03-28T15:12:29.120Z,56.25
2019-03-28T15:15:03.619Z,47.70
2019-03-28T15:17:38.172Z,51.60
2019-03-28T15:20:12.634Z,58.27
2019-03-28T15:22:47.092Z,48.70
2019-03-28T15:25:23.064Z,47.73
2019-03-28T15:27:57.166Z,55.87
2019-03-28T15:30:31.483Z,46.77
2019-03-28T15:33:05.968Z,54.20
2019-03-28T15:35:39.567Z,52.70
2019-03-28T15:38:15.443Z,50.73
2019-03-28T15:40:49.780Z,56.10
2019-03-28T15:43:26.422Z,50.13
2019-03-28T15:46:01.006Z,55.90
2019-03-28T15:48:35.666Z,53.03
2019-03-28T15:51:12.188Z,60.57
2019-03-28T15:53:46.975Z,53.93
2019-03-28T15:56:23.314Z,49.70
2019-03-28T15:58:59.093Z,54.33
2019-03-28T16:01:33.612Z,47.83
2019-03-28T16:04:11.772Z,52.83
2019-03-28T16:06:47.724Z,45.43
2019-03-28T16:09:23.725Z,43.80
2019-03-28T16:12:02.831Z,50.60
2019-03-28T16:14:34.380Z,48.17
2019-03-28T16:17:08.780Z,47.53
2019-03-28T16:19:45.163Z,48.23
2019-03-28T16:22:22.369Z,56.47
2019-03-28T16:24:55.094Z,49.63
2019-03-28T16:27:29.591Z,47.13
2019-03-28T16:30:04.045Z,53.27
2019-03-28T16:32:38.064Z,47.67
2019-03-28T16:35:12.080Z,49.70
2019-03-28T16:37:46.199Z,47.57
2019-03-28T16:40:20.475Z,45.67
2019-03-28T16:42:55.676Z,50.67
2019-03-28T16:45:30.084Z,46.40
2019-03-28T16:48:04.709Z,48.77
2019-03-28T16:50:38.832Z,45.60
2019-03-28T16:53:14.914Z,45.73
2019-03-28T16:55:49.321Z,54.50
2019-03-28T16:58:23.176Z,47.23
2019-03-28T17:00:57.006Z,44.38
2019-03-28T17:03:31.105Z,53.10
2019-03-28T17:06:07.688Z,48.53
2019-03-28T17:08:43.945Z,44.73
2019-03-28T17:11:18.570Z,45.93
2019-03-28T17:13:54.746Z,54.17
2019-03-28T17:16:29.682Z,46.67
2019-03-28T17:19:03.547Z,50.80
2019-03-28T17:21:38.024Z,52.00
2019-03-28T17:24:11.836Z,58.10
2019-03-28T17:26:47.393Z,45.60
2019-03-28T17:29:23.469Z,51.13
2019-03-28T17:31:59.632Z,54.13
2019-03-28T17:34:37.135Z,43.73
2019-03-28T17:37:10.977Z,48.40
2019-03-28T17:39:46.140Z,46.87
2019-03-28T17:42:19.738Z,43.55
2019-03-28T17:44:53.467Z,47.70
2019-03-28T17:47:27.112Z,46.60
2019-03-28T17:50:02.307Z,47.47
2019-03-28T17:52:35.837Z,48.67
2019-03-28T17:55:10.439Z,49.00
2019-03-28T17:57:45.816Z,53.77
2019-03-28T18:00:19.993Z,51.33
2019-03-28T18:02:53.986Z,50.03
2019-03-28T18:05:27.736Z,48.47
2019-03-28T18:08:03.610Z,53.47
2019-03-28T18:10:38.483Z,53.17
2019-03-28T18:13:13.573Z,44.20
2019-03-28T18:15:48.740Z,50.12
2019-03-28T18:18:26.267Z,48.87
2019-03-28T18:21:00.582Z,45.50
2019-03-28T18:23:34.798Z,51.00
2019-03-28T18:26:09.554Z,45.13
2019-03-28T18:28:45.731Z,55.73
2019-03-28T18:31:19.563Z,43.13
2019-03-28T18:33:58.329Z,49.10
2019-03-28T18:36:34.224Z,51.00
2019-03-28T18:39:08.872Z,51.83
2019-03-28T18:41:42.580Z,49.23
2019-03-28T18:44:17.461Z,50.35
2019-03-28T18:46:52.771Z,45.65
2019-03-28T18:49:28.705Z,53.73
2019-03-28T18:52:07.218Z,54.03
2019-03-28T18:54:40.320Z,43.10
2019-03-28T18:57:14.845Z,44.20
2019-03-28T18:59:49.807Z,45.03
2019-03-28T19:02:23.614Z,54.57
2019-03-28T19:04:57.473Z,51.95
2019-03-28T19:07:31.135Z,58.73
2019-03-28T19:10:05.713Z,50.07
2019-03-28T19:12:41.089Z,51.80
2019-03-28T19:15:15.810Z,51.47
2019-03-28T19:17:49.953Z,58.13
2019-03-28T19:20:25.469Z,52.93
2019-03-28T19:22:59.113Z,44.90
2019-03-28T19:25:35.340Z,53.90
2019-03-28T19:28:11.435Z,61.77
2019-03-28T19:30:45.451Z,64.77
2019-03-28T19:33:19.279Z,46.33
2019-03-28T19:35:55.857Z,60.35
2019-03-28T19:38:30.464Z,53.70
2019-03-28T19:41:04.470Z,53.27
2019-03-28T19:43:40.133Z,52.63
2019-03-28T19:46:13.901Z,58.53
2019-03-28T19:48:47.649Z,51.73
2019-03-28T19:51:21.215Z,56.47
2019-03-28T19:53:55.316Z,72.37
2019-03-28T19:56:29.127Z,56.53
2019-03-28T19:59:02.740Z,50.47
2019-03-28T20:01:37.563Z,59.10
2019-03-28T20:04:11.487Z,53.68
2019-03-28T20:06:45.029Z,58.43
2019-03-28T20:09:18.540Z,58.13
2019-03-28T20:11:52.123Z,68.13
2019-03-28T20:14:25.980Z,56.53
2019-03-28T20:16:59.873Z,57.80
2019-03-28T20:19:33.558Z,74.60
2019-03-28T20:22:07.078Z,71.57
2019-03-28T20:24:41.756Z,55.56
2019-03-28T20:27:15.549Z,57.77
2019-03-28T20:29:49.309Z,64.10
2019-03-28T20:32:22.941Z,62.20
2019-03-28T20:34:56.554Z,61.60
2019-03-28T20:37:30.194Z,60.30
2019-03-28T20:40:03.807Z,75.08
2019-03-28T20:42:37.402Z,73.70
2019-03-28T20:45:12.681Z,76.67
2019-03-28T20:47:46.423Z,71.22
2019-03-28T20:50:20.425Z,69.50
2019-03-28T20:52:54.310Z,73.65
2019-03-28T20:55:27.986Z,65.95
2019-03-28T20:58:02.816Z,67.90
2019-03-28T21:00:48.056Z,68.90
2019-03-28T21:03:22.961Z,63.70
2019-03-28T21:05:56.450Z,75.33
2019-03-28T21:08:30.338Z,84.95
2019-03-28T21:11:04.124Z,78.47
2019-03-28T21:13:38.114Z,72.47
2019-03-28T21:16:12.135Z,72.60
2019-03-28T21:18:45.463Z,75.93
2019-03-28T21:21:19.010Z,71.47
2019-03-28T21:23:52.726Z,75.87
2019-03-28T21:26:26.352Z,81.37
2019-03-28T21:28:59.884Z,75.70
2019-03-28T21:31:33.627Z,77.00
2019-03-28T21:34:07.745Z,71.35
2019-03-28T21:36:42.763Z,80.67
2019-03-28T21:39:17.107Z,73.90
2019-03-28T21:41:50.594Z,82.77
2019-03-28T21:44:24.197Z,87.37
2019-03-28T21:46:58.767Z,84.53
2019-03-28T21:49:32.686Z,81.13
2019-03-28T21:52:07.477Z,67.77
2019-03-28T21:54:41.802Z,72.83
2019-03-28T21:57:15.968Z,82.00
2019-03-28T21:59:49.643Z,78.07
2019-03-28T22:02:23.109Z,86.00
2019-03-28T22:04:56.585Z,74.90
2019-03-28T22:07:30.214Z,74.33
2019-03-28T22:10:04.226Z,77.10
2019-03-28T22:12:37.757Z,82.40
2019-03-28T22:15:11.964Z,84.40
2019-03-28T22:17:47.257Z,78.45
2019-03-28T22:20:20.766Z,70.95
2019-03-28T22:22:55.117Z,87.00
2019-03-28T22:25:30.401Z,84.50
2019-03-28T22:28:04.535Z,78.50
2019-03-28T22:30:38.980Z,95.17
2019-03-28T22:33:13.557Z,74.47
2019-03-28T22:35:47.547Z,69.73
2019-03-28T22:38:21.190Z,80.03
2019-03-28T22:40:54.991Z,81.70
2019-03-28T22:43:30.012Z,96.17
2019-03-28T22:46:05.559Z,96.23
2019-03-28T22:48:39.909Z,106.07
2019-03-28T22:51:13.595Z,94.60
2019-03-28T22:53:47.207Z,98.17
2019-03-28T22:56:21.747Z,113.23
2019-03-28T22:58:55.455Z,96.57
2019-03-28T23:01:29.445Z,101.60
2019-03-28T23:04:03.259Z,100.93
2019-03-28T23:06:38.091Z,113.08
2019-03-28T23:09:13.184Z,111.73
2019-03-28T23:11:54.676Z,126.00
2019-03-28T23:14:28.707Z,87.45
2019-03-28T23:17:02.387Z,96.60
2019-03-28T23:19:36.283Z,89.33
2019-03-28T23:22:10.118Z,92.53
2019-03-28T23:24:44.181Z,89.97
2019-03-28T23:27:18.658Z,85.20
2019-03-28T23:29:52.732Z,89.60
2019-03-28T23:32:26.583Z,77.77
2019-03-28T23:35:00.924Z,89.40
2019-03-28T23:37:35.072Z,102.55
2019-03-28T23:40:10.209Z,89.00
2019-03-28T23:42:44.556Z,105.92
2019-03-28T23:45:19.159Z,76.60
2019-03-28T23:47:55.176Z,84.43
2019-03-28T23:50:29.541Z,101.23
2019-03-28T23:53:05.536Z,103.10
2019-03-28T23:55:39.474Z,83.00
2019-03-28T23:58:13.311Z,67.33
